Time;durP1;ratioP1;P1;durP2;ratioP2;P2;SDS_P1;SDS_P2;PMS_P1;PMS_P2;Temp;Humidity;BMP_temperature;BMP_pressure;BME280_temperature;BME280_humidity;BME280_pressure;Samples;Min_cycle;Max_cycle;Signal;HPM_P1;HPM_P2
2021/10/06 00:01:14;;;;;;;14.10;10.53;;;;;;;11.22;67.12;95160.22;833869;71;32765;-76
2021/10/06 00:16:10;;;;;;;11.65;10.38;;;;;;;11.03;68.34;95138.56;828224;71;29879;-79
2021/10/06 00:31:14;;;;;;;11.70;10.10;;;;;;;;;;826074;71;32724;-78
2021/10/06 00:46:08;;;;;;;13.93;10.40;;;;;;;10.92;68.94;95121.30;833889;71;29751;-77
2021/10/06 01:01:15;;;;;;;13.90;11.55;;;;;;;10.88;69.37;95097.97;827346;71;31330;-76
2021/10/06 01:16:07;;;;;;;12.60;11.20;;;;;;;;;;834316;71;29437;-76
2021/10/06 01:31:08;;;;;;;12.88;10.30;;;;;;;10.76;69.59;91070.63;830790;71;29724;-78
2021/10/06 01:46:08;;;;;;;12.60;10.95;;;;;;;10.68;70.35;95093.64;828972;71;29791;-78
2021/10/06 02:01:16;;;;;;;14.50;11.12;;;;;;;10.68;70.15;95092.33;827961;71;32774;-77
2021/10/06 02:16:15;;;;;;;11.57;10.10;;;;;;;10.67;70.17;95098.65;833885;71;32750;-78
2021/10/06 02:31:15;;;;;;;10.72;9.63;;;;;;;;;;825871;71;32658;-78
2021/10/06 02:46:09;;;;;;;12.58;10.38;;;;;;;10.88;70.01;95103.75;824346;71;27755;-77
2021/10/06 03:16:08;;;;;;;14.65;11.33;;;;;;;;;;827998;71;30405;-78
2021/10/06 03:31:16;;;;;;;13.58;11.48;;;;;;;10.13;71.56;95098.13;822901;70;33311;-77
2021/10/06 03:46:08;;;;;;;13.68;10.88;;;;;;;10.15;72.10;95087.61;834510;71;30517;-78
2021/10/06 04:01:14;;;;;;;16.85;11.45;;;;;;;10.38;71.67;161433.09;829218;71;32714;-77
2021/10/06 04:16:08;;;;;;;16.67;12.95;;;;;;;10.17;73.06;95077.64;834286;71;29497;-82
2021/10/06 04:31:09;;;;;;;17.67;13.08;;;;;;;10.30;72.45;95076.31;827000;71;30262;-74
2021/10/06 04:46:08;;;;;;;21.15;14.40;;;;;;;9.99;72.41;95068.54;828233;71;29778;-75
2021/10/06 05:01:08;;;;;;;16.80;12.60;;;;;;;10.01;72.87;95075.61;828719;71;29714;-79
2021/10/06 05:16:08;;;;;;;22.42;15.08;;;;;;;11.36;69.95;95077.62;828207;71;29313;-74
2021/10/06 05:31:08;;;;;;;18.17;13.58;;;;;;;12.87;64.89;95061.27;826200;71;30164;-74
2021/10/06 05:46:10;;;;;;;19.40;15.30;;;;;;;13.87;61.25;95052.16;833954;71;30057;-77
2021/10/06 06:01:09;;;;;;;17.23;13.70;;;;;;;15.57;56.76;95063.91;828095;71;29852;-75
2021/10/06 06:16:13;;;;;;;18.42;14.07;;;;;;;17.29;51.85;95058.89;828077;71;32044;-76
2021/10/06 06:31:17;;;;;;;19.85;15.90;;;;;;;15.70;55.70;95065.44;824547;71;32850;-76
2021/10/06 06:46:20;;;;;;;17.05;14.13;;;;;;;15.69;56.23;95062.53;828045;71;30615;-75
2021/10/06 07:01:15;;;;;;;16.17;14.30;;;;;;;15.70;56.24;95064.11;828542;71;32795;-77
2021/10/06 07:16:15;;;;;;;21.87;14.33;;;;;;;15.94;55.15;95080.96;833836;71;32874;-78
2021/10/06 07:31:15;;;;;;;19.37;14.83;;;;;;;16.21;55.23;95082.03;829561;71;32779;-75
2021/10/06 07:46:15;;;;;;;18.30;15.78;;;;;;;16.86;55.35;95094.75;827439;71;32692;-79
2021/10/06 08:01:10;;;;;;;17.32;15.40;;;;;;;16.82;54.15;95112.59;827987;71;30829;-76
2021/10/06 08:16:09;;;;;;;14.10;12.70;;;;;;;16.89;53.24;95109.50;828191;71;30314;-76
2021/10/06 08:31:14;;;;;;;15.70;13.62;;;;;;;17.38;50.95;95106.08;827105;71;32742;-79
2021/10/06 08:46:08;;;;;;;17.40;15.58;;;;;;;17.57;50.74;95090.34;828215;71;30222;-78
2021/10/06 09:16:20;;;;;;;19.85;15.40;;;;;;;16.53;53.38;95092.53;820603;71;33338;-78
2021/10/06 09:31:13;;;;;;;21.93;16.97;;;;;;;17.02;52.65;95093.95;826404;71;30707;-79
2021/10/06 09:46:12;;;;;;;18.17;15.10;;;;;;;17.89;52.49;95085.59;828125;71;31995;-77
2021/10/06 10:01:39;;;;;;;20.37;15.60;;;;;;;17.85;50.66;95060.22;828426;71;32792;-82
2021/10/06 10:16:10;;;;;;;20.50;16.23;;;;;;;17.09;51.60;95025.88;827968;71;29831;-76
2021/10/06 10:31:09;;;;;;;17.90;15.98;;;;;;;16.46;53.34;95045.84;830689;71;29288;-78
2021/10/06 10:46:13;;;;;;;20.17;17.05;;;;;;;16.91;52.29;95046.86;828967;71;31683;-76
2021/10/06 11:01:15;;;;;;;18.45;15.90;;;;;;;15.98;54.51;95028.97;834219;71;31831;-77
2021/10/06 11:16:09;;;;;;;19.32;16.73;;;;;;;15.80;55.48;94998.48;828348;71;29332;-79
2021/10/06 11:31:08;;;;;;;20.85;17.50;;;;;;;16.34;54.58;95002.75;828056;71;28691;-78
2021/10/06 11:46:14;;;;;;;24.37;17.57;;;;;;;16.24;54.48;94994.59;828061;71;29326;-76
2021/10/06 12:01:14;;;;;;;21.00;17.82;;;;;;;15.27;56.95;94968.97;833897;71;31711;-78
2021/10/06 12:16:26;;;;;;;20.77;17.12;;;;;;;15.05;58.06;94964.52;828179;71;31100;-76
2021/10/06 12:31:27;;;;;;;21.07;17.32;;;;;;;15.48;56.86;94949.90;825900;71;31756;-76
2021/10/06 12:46:17;;;;;;;23.25;18.05;;;;;;;15.26;57.60;94942.83;829429;71;31693;-77
2021/10/06 13:01:14;;;;;;;19.17;16.85;;;;;;;15.52;57.21;94927.81;827679;71;31688;-76
2021/10/06 13:16:18;;;;;;;22.93;16.77;;;;;;;15.73;57.53;94902.89;827645;71;31785;-79
2021/10/06 13:31:08;;;;;;;21.40;17.20;;;;;;;15.74;56.62;94881.97;830638;71;28745;-76
2021/10/06 13:46:16;;;;;;;19.90;15.70;;;;;;;15.82;56.62;94895.75;833965;71;32225;-75
2021/10/06 14:01:09;;;;;;;18.20;14.50;;;;;;;15.47;56.80;94887.50;828209;71;28809;-74
2021/10/06 14:16:18;;;;;;;18.77;16.62;;;;;;;15.34;56.86;94891.84;800402;74;32503;-75
2021/10/06 14:31:15;;;;;;;19.75;15.98;;;;;;;15.11;57.41;94891.16;826199;71;32298;-76
2021/10/06 14:46:13;;;;;;;24.27;16.30;;;;;;;14.62;58.29;94874.71;828271;71;32654;-75
2021/10/06 15:16:08;;;;;;;17.75;15.40;;;;;;;13.97;58.41;94875.19;828140;71;30160;-77
2021/10/06 15:31:09;;;;;;;17.45;14.60;;;;;;;13.70;58.94;94876.84;831911;70;30323;-76
2021/10/06 15:46:13;;;;;;;14.90;13.40;;;;;;;13.61;58.29;94880.73;833947;71;32608;-77
2021/10/06 16:01:10;;;;;;;17.30;12.50;;;;;;;13.51;58.59;94884.13;828754;71;29683;-78
2021/10/06 16:16:16;;;;;;;20.00;16.93;;;;;;;13.31;57.70;94876.88;827299;71;32768;-77
2021/10/06 16:31:18;;;;;;;24.55;21.17;;;;;;;13.36;56.71;94890.48;826156;71;32786;-76
2021/10/06 16:46:18;;;;;;;29.50;22.50;;;;;;;13.34;56.67;94879.45;820779;71;32903;-77
2021/10/06 17:01:16;;;;;;;26.20;19.30;;;;;;;13.46;55.92;94896.09;823424;71;33128;-80
2021/10/06 17:16:08;;;;;;;21.80;18.30;;;;;;;13.62;53.71;94883.62;826594;71;29726;-78
2021/10/06 17:31:08;;;;;;;94.72;80.97;;;;;;;13.81;52.11;94886.11;827812;71;29730;-77
2021/10/06 17:46:19;;;;;;;29.77;20.50;;;;;;;13.75;55.30;94874.11;827478;71;32777;-77
2021/10/06 18:01:39;;;;;;;20.90;17.30;;;;;;;13.66;56.21;94884.34;833949;71;33035;-77
2021/10/06 18:16:08;;;;;;;13.62;10.60;;;;;;;13.58;55.46;94877.91;828401;71;29766;-77
2021/10/06 18:31:09;;;;;;;13.05;10.18;;;;;;;13.49;55.57;94879.15;827243;71;30702;-78
2021/10/06 18:46:15;;;;;;;13.30;11.00;;;;;;;13.30;56.40;94874.53;834597;71;33170;-77
2021/10/06 19:01:13;;;;;;;16.55;11.70;;;;;;;13.02;57.27;94863.45;828397;71;29777;-77
2021/10/06 19:16:19;;;;;;;14.95;12.63;;;;;;;12.85;58.88;94844.82;828566;71;32744;-80
2021/10/06 19:31:12;;;;;;;15.75;13.18;;;;;;;12.60;59.64;94853.98;820986;71;32091;-79
2021/10/06 19:46:09;;;;;;;13.88;11.73;;;;;;;12.44;60.17;94862.67;821067;71;30403;-79
2021/10/06 20:01:14;;;;;;;14.47;11.25;;;;;;;12.58;59.55;94854.27;821844;71;32725;-77
2021/10/06 20:16:18;;;;;;;13.15;11.18;;;;;;;12.48;60.73;94851.05;827336;71;32731;-79
2021/10/06 20:31:15;;;;;;;13.25;11.53;;;;;;;12.31;61.79;94872.66;826053;71;32863;-78
2021/10/06 20:46:09;;;;;;;15.23;13.45;;;;;;;12.14;62.62;94862.11;834122;71;30845;-76
2021/10/06 21:16:08;;;;;;;20.45;16.55;;;;;;;11.51;66.40;94852.77;834712;71;29821;-77
2021/10/06 21:31:16;;;;;;;23.50;15.68;;;;;;;11.29;69.15;94861.73;824988;71;34305;-77
2021/10/06 21:46:19;;;;;;;16.45;14.55;;;;;;;11.25;71.79;94878.59;829241;71;32773;-77
2021/10/06 22:01:16;;;;;;;17.35;14.07;;;;;;;11.27;72.77;94858.07;827411;71;33172;-77
2021/10/06 22:16:15;;;;;;;15.95;13.50;;;;;;;11.27;74.32;94882.25;827913;71;32901;-75
2021/10/06 22:31:16;;;;;;;12.18;10.98;;;;;;;11.31;75.50;94847.78;825895;71;32791;-76
2021/10/06 22:46:13;;;;;;;11.45;10.23;;;;;;;11.36;75.62;94841.17;828286;71;32006;-78
2021/10/06 23:01:09;;;;;;;10.53;9.53;;;;;;;11.37;75.73;94854.00;828047;71;29953;-77
2021/10/06 23:16:09;;;;;;;11.83;9.80;;;;;;;11.38;75.74;94860.05;828551;71;30309;-77
2021/10/06 23:31:18;;;;;;;11.90;10.78;;;;;;;11.34;76.22;94845.38;826049;71;33174;-75
2021/10/06 23:46:09;;;;;;;12.18;10.98;;;;;;;10.96;77.31;94828.80;834283;71;30283;-80
